sensor_id;sensor_type;location;lat;lon;timestamp;pressure;altitude;pressure_sealevel;temperature;humidity
68301;BME280;55146;47.468;18.806;2023-07-20T00:02:12;99339.81;;;24.10;70.26
68301;BME280;55146;47.468;18.806;2023-07-20T00:04:38;99337.34;;;24.05;71.41
68301;BME280;55146;47.468;18.806;2023-07-20T00:07:03;99331.78;;;24.08;70.96
68301;BME280;55146;47.468;18.806;2023-07-20T00:09:29;99329.38;;;24.07;70.95
68301;BME280;55146;47.468;18.806;2023-07-20T00:11:54;99330.47;;;23.99;70.58
68301;BME280;55146;47.468;18.806;2023-07-20T00:14:20;99326.38;;;23.93;70.96
68301;BME280;55146;47.468;18.806;2023-07-20T00:16:46;99320.69;;;23.89;71.31
68301;BME280;55146;47.468;18.806;2023-07-20T00:19:12;99318.34;;;23.95;71.58
68301;BME280;55146;47.468;18.806;2023-07-20T00:21:38;99313.97;;;23.97;71.21
68301;BME280;55146;47.468;18.806;2023-07-20T00:24:05;99330.91;;;24.01;70.92
68301;BME280;55146;47.468;18.806;2023-07-20T00:26:31;99330.81;;;23.94;71.08
68301;BME280;55146;47.468;18.806;2023-07-20T00:28:56;99333.56;;;23.90;71.58
68301;BME280;55146;47.468;18.806;2023-07-20T00:31:22;99338.78;;;23.92;71.50
68301;BME280;55146;47.468;18.806;2023-07-20T00:33:47;99346.06;;;23.96;71.05
68301;BME280;55146;47.468;18.806;2023-07-20T00:36:14;99338.34;;;23.90;71.23
68301;BME280;55146;47.468;18.806;2023-07-20T00:38:39;99338.78;;;23.92;71.14
68301;BME280;55146;47.468;18.806;2023-07-20T00:41:06;99327.53;;;23.88;71.18
68301;BME280;55146;47.468;18.806;2023-07-20T00:43:31;99327.47;;;23.85;71.25
68301;BME280;55146;47.468;18.806;2023-07-20T00:45:56;99318.13;;;23.77;72.09
68301;BME280;55146;47.468;18.806;2023-07-20T00:48:22;99314.91;;;23.75;72.02
68301;BME280;55146;47.468;18.806;2023-07-20T00:50:47;99315.31;;;23.77;71.90
68301;BME280;55146;47.468;18.806;2023-07-20T00:53:13;99315.78;;;23.83;71.88
68301;BME280;55146;47.468;18.806;2023-07-20T00:55:39;99312.97;;;23.83;71.76
68301;BME280;55146;47.468;18.806;2023-07-20T00:58:04;99304.19;;;23.84;71.93
68301;BME280;55146;47.468;18.806;2023-07-20T01:00:30;99302.66;;;23.90;71.63
68301;BME280;55146;47.468;18.806;2023-07-20T01:02:55;99298.19;;;23.86;71.58
68301;BME280;55146;47.468;18.806;2023-07-20T01:05:21;99302.97;;;23.82;72.07
68301;BME280;55146;47.468;18.806;2023-07-20T01:08:15;99301.34;;;23.81;72.09
68301;BME280;55146;47.468;18.806;2023-07-20T01:11:00;99294.56;;;23.85;71.99
68301;BME280;55146;47.468;18.806;2023-07-20T01:13:29;99288.03;;;23.77;72.43
68301;BME280;55146;47.468;18.806;2023-07-20T01:16:00;99288.50;;;23.83;72.03
68301;BME280;55146;47.468;18.806;2023-07-20T01:18:26;99288.84;;;23.78;72.10
68301;BME280;55146;47.468;18.806;2023-07-20T01:20:55;99300.87;;;23.75;72.55
68301;BME280;55146;47.468;18.806;2023-07-20T01:23:38;99296.91;;;23.79;72.21
68301;BME280;55146;47.468;18.806;2023-07-20T01:29:22;99278.06;;;23.80;72.37
68301;BME280;55146;47.468;18.806;2023-07-20T01:31:54;99286.91;;;23.82;72.20
68301;BME280;55146;47.468;18.806;2023-07-20T01:34:22;99287.22;;;23.77;72.68
68301;BME280;55146;47.468;18.806;2023-07-20T01:36:49;99295.66;;;23.77;72.56
68301;BME280;55146;47.468;18.806;2023-07-20T01:39:16;99295.16;;;23.68;73.07
68301;BME280;55146;47.468;18.806;2023-07-20T01:41:42;99294.78;;;23.69;72.86
68301;BME280;55146;47.468;18.806;2023-07-20T01:44:08;99298.81;;;23.72;72.73
68301;BME280;55146;47.468;18.806;2023-07-20T01:46:33;99307.59;;;23.70;72.91
68301;BME280;55146;47.468;18.806;2023-07-20T01:48:59;99313.72;;;23.76;72.63
68301;BME280;55146;47.468;18.806;2023-07-20T01:51:24;99300.00;;;23.71;72.91
68301;BME280;55146;47.468;18.806;2023-07-20T01:53:49;99316.53;;;23.76;72.59
68301;BME280;55146;47.468;18.806;2023-07-20T01:56:15;99311.91;;;23.61;73.43
68301;BME280;55146;47.468;18.806;2023-07-20T01:58:40;99311.91;;;23.61;72.77
68301;BME280;55146;47.468;18.806;2023-07-20T02:01:06;99311.47;;;23.59;72.88
68301;BME280;55146;47.468;18.806;2023-07-20T02:03:31;99317.84;;;23.56;73.38
68301;BME280;55146;47.468;18.806;2023-07-20T02:05:57;99327.44;;;23.51;73.18
68301;BME280;55146;47.468;18.806;2023-07-20T02:08:22;99323.84;;;23.54;73.40
68301;BME280;55146;47.468;18.806;2023-07-20T02:10:48;99326.75;;;23.35;74.09
68301;BME280;55146;47.468;18.806;2023-07-20T02:13:14;99331.56;;;23.34;73.71
68301;BME280;55146;47.468;18.806;2023-07-20T02:15:40;99334.47;;;23.42;74.03
68301;BME280;55146;47.468;18.806;2023-07-20T02:18:06;99341.66;;;23.39;73.99
68301;BME280;55146;47.468;18.806;2023-07-20T02:20:31;99341.66;;;23.39;73.25
68301;BME280;55146;47.468;18.806;2023-07-20T02:22:57;99337.94;;;23.31;73.97
68301;BME280;55146;47.468;18.806;2023-07-20T02:25:22;99343.53;;;23.31;74.08
68301;BME280;55146;47.468;18.806;2023-07-20T02:27:47;99344.78;;;23.34;74.04
68301;BME280;55146;47.468;18.806;2023-07-20T02:30:13;99338.03;;;23.38;73.64
68301;BME280;55146;47.468;18.806;2023-07-20T02:32:39;99333.34;;;23.20;72.39
68301;BME280;55146;47.468;18.806;2023-07-20T02:35:05;99331.28;;;23.17;74.98
68301;BME280;55146;47.468;18.806;2023-07-20T02:37:31;99334.69;;;23.29;74.13
68301;BME280;55146;47.468;18.806;2023-07-20T02:39:56;99330.31;;;23.32;73.16
68301;BME280;55146;47.468;18.806;2023-07-20T02:42:22;99332.81;;;23.37;73.72
68301;BME280;55146;47.468;18.806;2023-07-20T02:44:49;99336.75;;;23.32;73.72
68301;BME280;55146;47.468;18.806;2023-07-20T02:47:14;99336.34;;;23.34;73.12
68301;BME280;55146;47.468;18.806;2023-07-20T02:49:40;99341.97;;;23.34;71.95
68301;BME280;55146;47.468;18.806;2023-07-20T02:52:05;99350.34;;;23.30;72.74
68301;BME280;55146;47.468;18.806;2023-07-20T02:54:30;99354.53;;;23.17;73.79
68301;BME280;55146;47.468;18.806;2023-07-20T02:56:56;99356.16;;;23.18;72.63
68301;BME280;55146;47.468;18.806;2023-07-20T02:59:21;99357.78;;;23.19;73.11
68301;BME280;55146;47.468;18.806;2023-07-20T03:01:47;99354.91;;;23.16;73.38
68301;BME280;55146;47.468;18.806;2023-07-20T03:04:12;99361.72;;;23.15;73.91
68301;BME280;55146;47.468;18.806;2023-07-20T03:06:38;99366.59;;;23.18;73.30
68301;BME280;55146;47.468;18.806;2023-07-20T03:09:04;99373.38;;;23.17;73.50
68301;BME280;55146;47.468;18.806;2023-07-20T03:11:29;99380.66;;;23.21;73.37
68301;BME280;55146;47.468;18.806;2023-07-20T03:13:55;99371.50;;;23.24;72.98
68301;BME280;55146;47.468;18.806;2023-07-20T03:16:23;99381.06;;;23.20;73.31
68301;BME280;55146;47.468;18.806;2023-07-20T03:18:48;99388.34;;;23.24;73.32
68301;BME280;55146;47.468;18.806;2023-07-20T03:21:13;99383.56;;;23.02;73.12
68301;BME280;55146;47.468;18.806;2023-07-20T03:23:40;99384.13;;;23.11;73.35
68301;BME280;55146;47.468;18.806;2023-07-20T03:26:06;99387.38;;;23.13;72.96
68301;BME280;55146;47.468;18.806;2023-07-20T03:28:34;99388.59;;;23.16;73.01
68301;BME280;55146;47.468;18.806;2023-07-20T03:30:59;99385.06;;;23.19;72.67
68301;BME280;55146;47.468;18.806;2023-07-20T03:33:26;99383.78;;;23.16;72.74
68301;BME280;55146;47.468;18.806;2023-07-20T03:35:52;99387.38;;;23.13;72.39
68301;BME280;55146;47.468;18.806;2023-07-20T03:38:18;99391.28;;;23.09;73.05
68301;BME280;55146;47.468;18.806;2023-07-20T03:40:54;99391.41;;;23.16;72.78
68301;BME280;55146;47.468;18.806;2023-07-20T03:43:20;99399.69;;;23.09;72.16
68301;BME280;55146;47.468;18.806;2023-07-20T03:45:46;99394.53;;;23.11;72.46
68301;BME280;55146;47.468;18.806;2023-07-20T03:48:13;99402.50;;;23.09;72.51
68301;BME280;55146;47.468;18.806;2023-07-20T03:50:38;99400.09;;;23.07;72.38
68301;BME280;55146;47.468;18.806;2023-07-20T03:53:04;99403.75;;;23.11;72.53
68301;BME280;55146;47.468;18.806;2023-07-20T03:55:30;99409.38;;;23.11;72.08
68301;BME280;55146;47.468;18.806;2023-07-20T03:57:55;99410.50;;;23.07;72.93
68301;BME280;55146;47.468;18.806;2023-07-20T04:00:21;99422.16;;;23.09;72.81
68301;BME280;55146;47.468;18.806;2023-07-20T04:02:46;99412.53;;;23.10;72.19
68301;BME280;55146;47.468;18.806;2023-07-20T04:05:11;99411.38;;;23.11;72.83
68301;BME280;55146;47.468;18.806;2023-07-20T04:07:37;99418.25;;;23.13;72.62
68301;BME280;55146;47.468;18.806;2023-07-20T04:10:02;99411.94;;;23.20;72.57
68301;BME280;55146;47.468;18.806;2023-07-20T04:12:28;99411.03;;;23.16;72.37
68301;BME280;55146;47.468;18.806;2023-07-20T04:14:53;99417.06;;;23.14;72.14
68301;BME280;55146;47.468;18.806;2023-07-20T04:17:18;99403.72;;;23.08;72.52
68301;BME280;55146;47.468;18.806;2023-07-20T04:19:44;99394.97;;;23.13;71.81
68301;BME280;55146;47.468;18.806;2023-07-20T04:22:09;99385.28;;;23.10;72.14
68301;BME280;55146;47.468;18.806;2023-07-20T04:24:35;99394.16;;;23.12;71.90
68301;BME280;55146;47.468;18.806;2023-07-20T04:27:00;99387.72;;;23.12;71.66
68301;BME280;55146;47.468;18.806;2023-07-20T04:29:25;99387.28;;;23.10;71.85
68301;BME280;55146;47.468;18.806;2023-07-20T04:31:51;99397.78;;;23.13;72.50
68301;BME280;55146;47.468;18.806;2023-07-20T04:34:16;99397.56;;;23.25;71.79
68301;BME280;55146;47.468;18.806;2023-07-20T04:36:41;99394.19;;;23.16;71.80
68301;BME280;55146;47.468;18.806;2023-07-20T04:39:07;99401.88;;;23.19;71.27
68301;BME280;55146;47.468;18.806;2023-07-20T04:41:33;99400.75;;;23.23;71.72
68301;BME280;55146;47.468;18.806;2023-07-20T04:43:59;99401.34;;;23.36;71.23
68301;BME280;55146;47.468;18.806;2023-07-20T04:46:24;99402.28;;;23.44;70.59
68301;BME280;55146;47.468;18.806;2023-07-20T04:48:50;99408.06;;;23.51;70.36
68301;BME280;55146;47.468;18.806;2023-07-20T04:51:15;99406.13;;;23.58;70.13
68301;BME280;55146;47.468;18.806;2023-07-20T04:53:42;99418.25;;;23.62;69.52
68301;BME280;55146;47.468;18.806;2023-07-20T04:56:08;99416.88;;;23.53;69.42
68301;BME280;55146;47.468;18.806;2023-07-20T04:58:33;99411.94;;;23.46;69.69
68301;BME280;55146;47.468;18.806;2023-07-20T05:00:58;99418.31;;;23.43;70.17
68301;BME280;55146;47.468;18.806;2023-07-20T05:03:24;99418.25;;;23.39;70.84
68301;BME280;55146;47.468;18.806;2023-07-20T05:05:49;99415.50;;;23.43;70.60
68301;BME280;55146;47.468;18.806;2023-07-20T05:08:15;99412.84;;;23.50;70.41
68301;BME280;55146;47.468;18.806;2023-07-20T05:10:41;99408.47;;;23.53;69.55
68301;BME280;55146;47.468;18.806;2023-07-20T05:13:06;99412.72;;;23.43;70.05
68301;BME280;55146;47.468;18.806;2023-07-20T05:15:34;99407.41;;;23.38;70.22
68301;BME280;55146;47.468;18.806;2023-07-20T05:18:00;99410.62;;;23.40;69.92
68301;BME280;55146;47.468;18.806;2023-07-20T05:20:26;99416.66;;;23.38;70.94
68301;BME280;55146;47.468;18.806;2023-07-20T05:22:52;99413.06;;;23.42;71.07
68301;BME280;55146;47.468;18.806;2023-07-20T05:25:17;99415.88;;;23.42;71.27
68301;BME280;55146;47.468;18.806;2023-07-20T05:27:44;99415.50;;;23.43;71.17
68301;BME280;55146;47.468;18.806;2023-07-20T05:30:09;99410.72;;;23.44;71.89
68301;BME280;55146;47.468;18.806;2023-07-20T05:32:35;99418.94;;;23.56;71.72
68301;BME280;55146;47.468;18.806;2023-07-20T05:35:01;99428.22;;;23.60;71.16
68301;BME280;55146;47.468;18.806;2023-07-20T05:37:26;99423.38;;;23.57;71.10
68301;BME280;55146;47.468;18.806;2023-07-20T05:39:51;99427.31;;;23.52;70.46
68301;BME280;55146;47.468;18.806;2023-07-20T05:42:16;99416.06;;;23.52;71.78
68301;BME280;55146;47.468;18.806;2023-07-20T05:44:42;99421.69;;;23.52;70.84
68301;BME280;55146;47.468;18.806;2023-07-20T05:47:07;99415.50;;;23.43;70.07
68301;BME280;55146;47.468;18.806;2023-07-20T05:49:34;99414.53;;;23.32;68.94
68301;BME280;55146;47.468;18.806;2023-07-20T05:52:00;99413.59;;;23.24;71.65
68301;BME280;55146;47.468;18.806;2023-07-20T05:54:26;99414.91;;;23.30;71.44
68301;BME280;55146;47.468;18.806;2023-07-20T05:56:52;99416.25;;;23.40;71.01
68301;BME280;55146;47.468;18.806;2023-07-20T05:59:18;99412.72;;;23.43;69.23
68301;BME280;55146;47.468;18.806;2023-07-20T06:01:44;99416.31;;;23.44;67.76
68301;BME280;55146;47.468;18.806;2023-07-20T06:04:09;99416.75;;;23.46;66.92
68301;BME280;55146;47.468;18.806;2023-07-20T06:06:35;99421.69;;;23.52;66.75
68301;BME280;55146;47.468;18.806;2023-07-20T06:09:01;99423.38;;;23.57;64.58
68301;BME280;55146;47.468;18.806;2023-07-20T06:11:30;99422.75;;;23.44;64.32
68301;BME280;55146;47.468;18.806;2023-07-20T06:13:56;99428.28;;;23.40;65.61
68301;BME280;55146;47.468;18.806;2023-07-20T06:16:22;99432.19;;;23.55;65.34
68301;BME280;55146;47.468;18.806;2023-07-20T06:18:47;99432.88;;;23.75;65.17
68301;BME280;55146;47.468;18.806;2023-07-20T06:21:13;99435.59;;;23.94;64.43
68301;BME280;55146;47.468;18.806;2023-07-20T06:23:38;99426.97;;;24.13;64.38
68301;BME280;55146;47.468;18.806;2023-07-20T06:26:06;99436.47;;;24.28;59.66
68301;BME280;55146;47.468;18.806;2023-07-20T06:28:31;99441.47;;;24.45;61.02
68301;BME280;55146;47.468;18.806;2023-07-20T06:31:00;99442.94;;;24.66;58.13
68301;BME280;55146;47.468;18.806;2023-07-20T06:33:26;99446.78;;;24.87;58.58
68301;BME280;55146;47.468;18.806;2023-07-20T06:35:52;99458.69;;;25.07;57.36
68301;BME280;55146;47.468;18.806;2023-07-20T06:38:18;99454.84;;;25.26;57.36
68301;BME280;55146;47.468;18.806;2023-07-20T06:40:43;99461.84;;;25.43;56.25
68301;BME280;55146;47.468;18.806;2023-07-20T06:43:09;99470.16;;;25.72;54.88
68301;BME280;55146;47.468;18.806;2023-07-20T06:45:34;99464.22;;;25.88;54.91
68301;BME280;55146;47.468;18.806;2023-07-20T06:47:59;99465.19;;;26.17;54.77
68301;BME280;55146;47.468;18.806;2023-07-20T06:50:25;99460.13;;;26.44;53.93
68301;BME280;55146;47.468;18.806;2023-07-20T06:52:50;99463.84;;;26.66;52.55
68301;BME280;55146;47.468;18.806;2023-07-20T06:55:15;99457.75;;;26.56;50.21
68301;BME280;55146;47.468;18.806;2023-07-20T06:57:41;99465.44;;;26.60;49.77
68301;BME280;55146;47.468;18.806;2023-07-20T07:00:06;99467.06;;;26.64;48.84
68301;BME280;55146;47.468;18.806;2023-07-20T07:02:32;99463.84;;;26.66;47.52
68301;BME280;55146;47.468;18.806;2023-07-20T07:04:57;99473.97;;;26.88;47.56
68301;BME280;55146;47.468;18.806;2023-07-20T07:07:23;99475.25;;;26.90;46.76
68301;BME280;55146;47.468;18.806;2023-07-20T07:09:48;99475.16;;;26.80;46.24
68301;BME280;55146;47.468;18.806;2023-07-20T07:12:13;99483.22;;;26.71;46.25
68301;BME280;55146;47.468;18.806;2023-07-20T07:14:39;99475.16;;;26.76;46.15
68301;BME280;55146;47.468;18.806;2023-07-20T07:17:05;99473.28;;;27.09;46.79
68301;BME280;55146;47.468;18.806;2023-07-20T07:19:30;99467.63;;;27.09;46.35
68301;BME280;55146;47.468;18.806;2023-07-20T07:21:55;99471.66;;;27.29;46.79
68301;BME280;55146;47.468;18.806;2023-07-20T07:24:21;99466.47;;;27.52;46.92
68301;BME280;55146;47.468;18.806;2023-07-20T07:26:46;99471.72;;;27.75;47.70
68301;BME280;55146;47.468;18.806;2023-07-20T07:29:11;99474.97;;;27.52;45.17
68301;BME280;55146;47.468;18.806;2023-07-20T07:31:37;99470.88;;;27.78;45.51
68301;BME280;55146;47.468;18.806;2023-07-20T07:34:03;99474.09;;;28.19;45.53
68301;BME280;55146;47.468;18.806;2023-07-20T07:36:30;99476.47;;;28.28;45.55
68301;BME280;55146;47.468;18.806;2023-07-20T07:38:55;99480.34;;;28.73;45.03
68301;BME280;55146;47.468;18.806;2023-07-20T07:41:20;99465.53;;;28.44;45.14
68301;BME280;55146;47.468;18.806;2023-07-20T07:43:46;99470.66;;;28.74;43.61
68301;BME280;55146;47.468;18.806;2023-07-20T07:46:11;99474.28;;;28.81;43.53
68301;BME280;55146;47.468;18.806;2023-07-20T07:48:36;99472.31;;;28.61;44.50
68301;BME280;55146;47.468;18.806;2023-07-20T07:51:02;99477.59;;;28.55;42.27
68301;BME280;55146;47.468;18.806;2023-07-20T07:53:27;99470.66;;;28.74;42.85
68301;BME280;55146;47.468;18.806;2023-07-20T07:55:53;99470.41;;;29.16;42.39
68301;BME280;55146;47.468;18.806;2023-07-20T07:58:18;99465.13;;;29.22;42.04
68301;BME280;55146;47.468;18.806;2023-07-20T08:00:44;99471.19;;;29.20;41.58
68301;BME280;55146;47.468;18.806;2023-07-20T08:03:10;99472.72;;;29.32;41.33
68301;BME280;55146;47.468;18.806;2023-07-20T08:05:35;99468.66;;;29.40;39.96
68301;BME280;55146;47.468;18.806;2023-07-20T08:08:02;99474.97;;;29.00;40.37
68301;BME280;55146;47.468;18.806;2023-07-20T08:10:29;99477.19;;;29.37;42.40
68301;BME280;55146;47.468;18.806;2023-07-20T08:12:54;99469.22;;;29.14;39.96
68301;BME280;55146;47.468;18.806;2023-07-20T08:15:19;99469.66;;;29.64;41.89
68301;BME280;55146;47.468;18.806;2023-07-20T08:17:45;99466.97;;;29.50;40.18
68301;BME280;55146;47.468;18.806;2023-07-20T08:20:12;99461.38;;;29.87;40.44
68301;BME280;55146;47.468;18.806;2023-07-20T08:22:38;99457.78;;;29.80;41.43
68301;BME280;55146;47.468;18.806;2023-07-20T08:25:07;99454.16;;;29.75;39.01
68301;BME280;55146;47.468;18.806;2023-07-20T08:27:35;99459.66;;;29.97;37.99
68301;BME280;55146;47.468;18.806;2023-07-20T08:30:00;99457.63;;;30.35;39.95
68301;BME280;55146;47.468;18.806;2023-07-20T08:32:26;99468.91;;;30.04;39.19
68301;BME280;55146;47.468;18.806;2023-07-20T08:34:52;99470.69;;;30.29;39.15
68301;BME280;55146;47.468;18.806;2023-07-20T08:37:17;99473.72;;;30.07;37.86
68301;BME280;55146;47.468;18.806;2023-07-20T08:39:42;99476.28;;;30.36;38.92
68301;BME280;55146;47.468;18.806;2023-07-20T08:42:09;99469.53;;;30.23;39.05
68301;BME280;55146;47.468;18.806;2023-07-20T08:44:36;99470.22;;;30.34;40.19
68301;BME280;55146;47.468;18.806;2023-07-20T08:47:02;99478.66;;;30.00;38.56
68301;BME280;55146;47.468;18.806;2023-07-20T08:49:34;99478.72;;;30.34;38.02
68301;BME280;55146;47.468;18.806;2023-07-20T08:51:59;99496.13;;;29.50;39.33
68301;BME280;55146;47.468;18.806;2023-07-20T08:54:30;99496.28;;;29.25;39.34
68301;BME280;55146;47.468;18.806;2023-07-20T08:57:01;99493.13;;;29.13;39.90
68301;BME280;55146;47.468;18.806;2023-07-20T08:59:28;99494.78;;;29.07;40.41
68301;BME280;55146;47.468;18.806;2023-07-20T09:01:55;99496.16;;;28.74;41.08
68301;BME280;55146;47.468;18.806;2023-07-20T09:04:21;99505.63;;;29.19;40.37
68301;BME280;55146;47.468;18.806;2023-07-20T09:06:50;99496.47;;;28.93;41.51
68301;BME280;55146;47.468;18.806;2023-07-20T09:09:16;99500.69;;;29.33;41.10
68301;BME280;55146;47.468;18.806;2023-07-20T09:11:41;99491.06;;;29.17;39.50
68301;BME280;55146;47.468;18.806;2023-07-20T09:14:08;99501.31;;;28.93;38.94
68301;BME280;55146;47.468;18.806;2023-07-20T09:16:55;99493.34;;;29.43;41.82
68301;BME280;55146;47.468;18.806;2023-07-20T09:19:21;99500.09;;;30.08;41.66
68301;BME280;55146;47.468;18.806;2023-07-20T09:21:51;99485.63;;;30.33;40.91
68301;BME280;55146;47.468;18.806;2023-07-20T09:24:20;99504.53;;;30.09;39.05
68301;BME280;55146;47.468;18.806;2023-07-20T09:26:47;99499.31;;;30.04;39.38
68301;BME280;55146;47.468;18.806;2023-07-20T09:29:19;99497.63;;;30.10;40.05
68301;BME280;55146;47.468;18.806;2023-07-20T09:31:58;99499.25;;;30.11;38.54
68301;BME280;55146;47.468;18.806;2023-07-20T09:34:24;99503.25;;;30.17;38.87
68301;BME280;55146;47.468;18.806;2023-07-20T09:36:50;99503.19;;;30.24;36.85
68301;BME280;55146;47.468;18.806;2023-07-20T09:39:16;99503.72;;;29.60;37.24
68301;BME280;55146;47.468;18.806;2023-07-20T09:41:42;99505.87;;;29.46;39.65
68301;BME280;55146;47.468;18.806;2023-07-20T09:44:07;99506.25;;;29.48;41.56
68301;BME280;55146;47.468;18.806;2023-07-20T09:46:45;99512.75;;;29.48;40.68
68301;BME280;55146;47.468;18.806;2023-07-20T09:49:11;99516.56;;;29.13;41.24
68301;BME280;55146;47.468;18.806;2023-07-20T09:51:37;99515.63;;;28.50;39.90
68301;BME280;55146;47.468;18.806;2023-07-20T09:54:04;99521.75;;;28.03;41.73
68301;BME280;55146;47.468;18.806;2023-07-20T09:56:30;99523.31;;;28.39;41.92
68301;BME280;55146;47.468;18.806;2023-07-20T09:58:56;99529.84;;;28.33;41.68
68301;BME280;55146;47.468;18.806;2023-07-20T10:01:22;99526.56;;;28.48;42.59
68301;BME280;55146;47.468;18.806;2023-07-20T10:03:51;99534.63;;;28.46;42.43
68301;BME280;55146;47.468;18.806;2023-07-20T10:06:22;99532.66;;;27.65;42.87
68301;BME280;55146;47.468;18.806;2023-07-20T10:08:52;99527.38;;;27.43;43.60
68301;BME280;55146;47.468;18.806;2023-07-20T10:11:18;99529.84;;;27.51;43.05
68301;BME280;55146;47.468;18.806;2023-07-20T10:13:44;99531.41;;;27.27;43.08
68301;BME280;55146;47.468;18.806;2023-07-20T10:16:20;99535.41;;;27.12;43.67
68301;BME280;55146;47.468;18.806;2023-07-20T10:22:08;99521.28;;;27.12;44.31
68301;BME280;55146;47.468;18.806;2023-07-20T10:24:36;99528.59;;;27.27;43.60
68301;BME280;55146;47.468;18.806;2023-07-20T10:27:04;99531.81;;;27.36;44.82
68301;BME280;55146;47.468;18.806;2023-07-20T10:29:30;99525.75;;;27.34;45.44
68301;BME280;55146;47.468;18.806;2023-07-20T10:31:56;99532.62;;;27.37;44.92
68301;BME280;55146;47.468;18.806;2023-07-20T10:34:22;99525.75;;;27.42;45.34
68301;BME280;55146;47.468;18.806;2023-07-20T10:36:49;99529.37;;;27.31;46.14
68301;BME280;55146;47.468;18.806;2023-07-20T10:39:32;99532.25;;;27.49;46.46
68301;BME280;55146;47.468;18.806;2023-07-20T10:42:02;99535.44;;;27.41;45.90
68301;BME280;55146;47.468;18.806;2023-07-20T10:44:29;99527.38;;;27.43;46.94
68301;BME280;55146;47.468;18.806;2023-07-20T10:47:06;99533.84;;;27.43;46.58
68301;BME280;55146;47.468;18.806;2023-07-20T10:49:33;99527.38;;;27.21;44.21
68301;BME280;55146;47.468;18.806;2023-07-20T10:52:04;99526.53;;;27.24;43.86
68301;BME280;55146;47.468;18.806;2023-07-20T10:56:56;99538.25;;;27.23;44.85
68301;BME280;55146;47.468;18.806;2023-07-20T11:01:56;99539.78;;;26.95;43.34
68301;BME280;55146;47.468;18.806;2023-07-20T11:04:47;99538.22;;;27.12;44.53
68301;BME280;55146;47.468;18.806;2023-07-20T11:07:35;99535.03;;;27.28;43.07
68301;BME280;55146;47.468;18.806;2023-07-20T11:10:15;99526.63;;;28.06;41.44
68301;BME280;55146;47.468;18.806;2023-07-20T11:12:40;99526.06;;;28.78;40.55
68301;BME280;55146;47.468;18.806;2023-07-20T11:15:06;99538.03;;;29.14;40.05
68301;BME280;55146;47.468;18.806;2023-07-20T11:17:33;99530.78;;;29.06;41.37
68301;BME280;55146;47.468;18.806;2023-07-20T11:20:01;99525.38;;;29.37;42.30
68301;BME280;55146;47.468;18.806;2023-07-20T11:22:28;99522.16;;;29.27;38.52
68301;BME280;55146;47.468;18.806;2023-07-20T11:24:56;99524.84;;;29.52;38.75
68301;BME280;55146;47.468;18.806;2023-07-20T11:27:21;99532.22;;;29.43;38.59
68301;BME280;55146;47.468;18.806;2023-07-20T11:29:50;99532.00;;;29.74;39.79
68301;BME280;55146;47.468;18.806;2023-07-20T11:32:22;99536.69;;;29.95;38.81
68301;BME280;55146;47.468;18.806;2023-07-20T11:34:48;99530.44;;;29.63;38.72
68301;BME280;55146;47.468;18.806;2023-07-20T11:37:13;99531.47;;;29.87;39.04
68301;BME280;55146;47.468;18.806;2023-07-20T11:39:39;99525.75;;;29.94;38.17
68301;BME280;55146;47.468;18.806;2023-07-20T11:42:05;99521.03;;;30.21;38.48
68301;BME280;55146;47.468;18.806;2023-07-20T11:44:31;99511.41;;;30.52;38.97
68301;BME280;55146;47.468;18.806;2023-07-20T11:47:10;99520.66;;;30.57;37.69
68301;BME280;55146;47.468;18.806;2023-07-20T11:52:06;99523.97;;;30.85;38.56
68301;BME280;55146;47.468;18.806;2023-07-20T11:54:32;99514.97;;;30.60;37.57
68301;BME280;55146;47.468;18.806;2023-07-20T11:57:01;99521.66;;;30.39;37.04
68301;BME280;55146;47.468;18.806;2023-07-20T11:59:27;99518.72;;;30.50;37.16
68301;BME280;55146;47.468;18.806;2023-07-20T12:01:53;99518.88;;;30.36;36.19
68301;BME280;55146;47.468;18.806;2023-07-20T12:04:19;99516.66;;;30.54;35.97
68301;BME280;55146;47.468;18.806;2023-07-20T12:06:45;99495.16;;;30.53;37.54
68301;BME280;55146;47.468;18.806;2023-07-20T12:09:14;99511.84;;;30.47;35.11
68301;BME280;55146;47.468;18.806;2023-07-20T12:11:43;99501.50;;;30.30;35.06
68301;BME280;55146;47.468;18.806;2023-07-20T12:14:10;99499.66;;;30.47;36.39
68301;BME280;55146;47.468;18.806;2023-07-20T12:16:37;99506.22;;;30.40;37.25
68301;BME280;55146;47.468;18.806;2023-07-20T12:19:08;99500.44;;;30.51;37.42
68301;BME280;55146;47.468;18.806;2023-07-20T12:21:34;99490.56;;;30.63;36.74
68301;BME280;55146;47.468;18.806;2023-07-20T12:24:02;99495.34;;;30.69;35.98
68301;BME280;55146;47.468;18.806;2023-07-20T12:26:33;99496.22;;;30.97;37.53
68301;BME280;55146;47.468;18.806;2023-07-20T12:28:58;99496.31;;;30.89;36.98
68301;BME280;55146;47.468;18.806;2023-07-20T12:31:25;99489.87;;;30.85;35.52
68301;BME280;55146;47.468;18.806;2023-07-20T12:33:51;99489.56;;;30.80;36.03
68301;BME280;55146;47.468;18.806;2023-07-20T12:36:18;99487.88;;;30.82;37.84
68301;BME280;55146;47.468;18.806;2023-07-20T12:38:43;99487.38;;;30.91;36.74
68301;BME280;55146;47.468;18.806;2023-07-20T12:41:10;99494.47;;;30.76;37.69
68301;BME280;55146;47.468;18.806;2023-07-20T12:43:43;99488.69;;;30.83;38.35
68301;BME280;55146;47.468;18.806;2023-07-20T12:46:10;99491.53;;;30.52;36.73
68301;BME280;55146;47.468;18.806;2023-07-20T12:48:36;99485.16;;;30.00;37.61
68301;BME280;55146;47.468;18.806;2023-07-20T12:51:06;99484.50;;;29.82;33.54
68301;BME280;55146;47.468;18.806;2023-07-20T12:53:34;99479.53;;;29.45;33.81
68301;BME280;55146;47.468;18.806;2023-07-20T12:56:01;99476.44;;;29.77;35.08
68301;BME280;55146;47.468;18.806;2023-07-20T12:58:26;99478.25;;;30.01;35.12
68301;BME280;55146;47.468;18.806;2023-07-20T13:00:52;99475.50;;;29.94;33.70
68301;BME280;55146;47.468;18.806;2023-07-20T13:03:18;99466.84;;;30.08;34.93